Time;durP1;ratioP1;P1;durP2;ratioP2;P2;SDS_P1;SDS_P2;PMS_P1;PMS_P2;Temp;Humidity;BMP_temperature;BMP_pressure;BME280_temperature;BME280_humidity;BME280_pressure;Samples;Min_cycle;Max_cycle;Signal;HPM_P1;HPM_P2
2022/03/04 00:01:30;;;;;;;;;;;;;;;-1.60;85.23;99606.16;5052486;28;819;-59
2022/03/04 00:03:55;;;;;;;;;;;;;;;-1.67;85.44;99609.38;5052330;28;950;-59
2022/03/04 00:06:22;;;;;;;;;;;;;;;-1.90;85.08;99611.53;5052304;28;1889;-59
2022/03/04 00:08:50;;;;;;;;;;;;;;;-2.12;85.16;99609.84;5052367;28;791;-59
2022/03/04 00:11:17;;;;;;;;;;;;;;;-2.26;85.98;99610.84;5052265;28;871;-57
2022/03/04 00:13:43;;;;;;;;;;;;;;;-2.28;86.36;99606.88;5052280;28;828;-57
2022/03/04 00:16:10;;;;;;;;;;;;;;;-2.20;87.09;99608.75;5052082;28;991;-58
2022/03/04 00:18:37;;;;;;;;;;;;;;;-2.06;87.89;99609.34;5052142;28;882;-59
2022/03/04 00:21:03;;;;;;;;;;;;;;;-1.89;88.71;99611.22;5051947;28;850;-57
2022/03/04 00:23:30;;;;;;;;;;;;;;;-1.68;88.08;99615.94;5052112;28;894;-57
2022/03/04 00:25:56;;;;;;;;;;;;;;;-1.45;88.13;99613.78;5051990;28;819;-57
2022/03/04 00:28:23;;;;;;;;;;;;;;;-1.23;87.70;99612.69;5052076;28;1949;-58
2022/03/04 00:30:49;;;;;;;;;;;;;;;-1.06;87.14;99615.28;5052030;28;925;-58
2022/03/04 00:33:15;;;;;;;;;;;;;;;-1.08;86.13;99605.91;5052067;28;946;-57
2022/03/04 00:35:42;;;;;;;;;;;;;;;-1.06;86.32;99618.00;5052729;28;803;-57
2022/03/04 00:38:09;;;;;;;;;;;;;;;-0.97;86.19;99611.72;5052399;28;831;-57
2022/03/04 00:40:35;;;;;;;;;;;;;;;-0.87;86.30;99604.00;5050867;28;855;-57
2022/03/04 00:43:01;;;;;;;;;;;;;;;-0.81;85.92;99601.88;5051428;28;1230;-57
2022/03/04 00:45:28;;;;;;;;;;;;;;;-0.78;85.68;99601.22;5051667;28;944;-57
2022/03/04 00:47:54;;;;;;;;;;;;;;;-0.76;86.01;99601.69;5051780;28;1976;-57
2022/03/04 00:50:21;;;;;;;;;;;;;;;-0.73;86.11;99587.44;5051544;28;824;-57
2022/03/04 00:52:47;;;;;;;;;;;;;;;-0.74;86.31;99587.78;5051577;28;878;-57
2022/03/04 00:55:14;;;;;;;;;;;;;;;-0.74;86.52;99583.16;5051603;28;831;-57
2022/03/04 00:57:40;;;;;;;;;;;;;;;-0.81;86.80;99582.91;5051537;28;851;-57
2022/03/04 01:00:07;;;;;;;;;;;;;;;-0.81;86.85;99580.19;5051405;28;867;-57
2022/03/04 01:02:33;;;;;;;;;;;;;;;-0.84;86.72;99575.41;5051448;28;862;-57
2022/03/04 01:05:00;;;;;;;;;;;;;;;-0.87;86.88;99576.88;5051763;28;811;-57
2022/03/04 01:07:27;;;;;;;;;;;;;;;-0.86;86.75;99569.50;5051334;28;1949;-57
2022/03/04 01:09:54;;;;;;;;;;;;;;;-1.02;86.45;99574.75;5051729;28;818;-57
2022/03/04 01:12:20;;;;;;;;;;;;;;;-1.28;86.09;99586.56;5051452;28;814;-57
2022/03/04 01:14:47;;;;;;;;;;;;;;;-1.53;86.59;99574.72;5051237;28;940;-57
2022/03/04 01:17:14;;;;;;;;;;;;;;;-1.57;86.78;99579.22;5051563;28;890;-57
2022/03/04 01:19:40;;;;;;;;;;;;;;;-1.59;86.98;99583.38;5051199;28;800;-57
2022/03/04 01:22:06;;;;;;;;;;;;;;;-1.58;87.50;99576.81;5051274;28;1008;-58
2022/03/04 01:24:32;;;;;;;;;;;;;;;-1.59;87.15;99572.53;5051323;28;859;-58
2022/03/04 01:26:59;;;;;;;;;;;;;;;-1.58;87.24;99577.63;5051228;28;1889;-57
2022/03/04 01:29:25;;;;;;;;;;;;;;;-1.49;87.32;99583.81;5051209;28;803;-57
2022/03/04 01:31:51;;;;;;;;;;;;;;;-1.46;87.30;99576.94;5051251;28;937;-57
2022/03/04 01:34:17;;;;;;;;;;;;;;;-1.39;86.72;99574.47;5051379;28;895;-57
2022/03/04 01:36:43;;;;;;;;;;;;;;;-1.32;86.76;99579.41;5051191;28;866;-57
2022/03/04 01:39:10;;;;;;;;;;;;;;;-1.22;86.87;99584.44;5051123;28;844;-57
2022/03/04 01:41:36;;;;;;;;;;;;;;;-1.10;86.55;99584.53;5049663;28;1154;-57
2022/03/04 01:44:03;;;;;;;;;;;;;;;-0.95;86.67;99579.66;5051390;28;811;-59
2022/03/04 01:46:30;;;;;;;;;;;;;;;-0.86;86.52;99575.72;5050907;28;1967;-57
2022/03/04 01:48:56;;;;;;;;;;;;;;;-0.82;86.08;99578.56;5049774;28;785;-59
2022/03/04 01:51:24;;;;;;;;;;;;;;;-0.85;85.76;99574.63;5051091;28;870;-57
2022/03/04 01:53:51;;;;;;;;;;;;;;;-0.84;85.83;99581.63;5051102;28;858;-59
2022/03/04 01:56:17;;;;;;;;;;;;;;;-0.75;85.77;99583.47;5051006;28;815;-59
2022/03/04 01:58:44;;;;;;;;;;;;;;;-0.71;85.34;99570.81;5051258;28;811;-59
2022/03/04 02:01:11;;;;;;;;;;;;;;;-0.70;85.28;99580.56;5050934;28;893;-59
2022/03/04 02:03:36;;;;;;;;;;;;;;;-0.71;84.86;99582.47;5050838;28;859;-59
2022/03/04 02:06:03;;;;;;;;;;;;;;;-0.73;84.91;99583.94;5050932;28;1041;-59
2022/03/04 02:08:29;;;;;;;;;;;;;;;-0.71;84.68;99579.75;5050802;28;1901;-59
2022/03/04 02:10:56;;;;;;;;;;;;;;;-0.65;84.46;99583.84;5052079;28;954;-58
2022/03/04 02:13:22;;;;;;;;;;;;;;;-0.58;84.22;99587.97;5054742;28;815;-58
2022/03/04 02:15:49;;;;;;;;;;;;;;;-0.55;84.22;99582.66;5054754;28;906;-59
2022/03/04 02:18:17;;;;;;;;;;;;;;;-0.50;84.22;99579.75;5054958;28;1008;-58
2022/03/04 02:20:45;;;;;;;;;;;;;;;-0.41;83.64;99590.50;5053323;28;1619;-57
2022/03/04 02:23:12;;;;;;;;;;;;;;;-0.57;83.87;99559.69;5054301;28;838;-57
2022/03/04 02:25:40;;;;;;;;;;;;;;;-0.31;83.48;99583.88;5054269;28;879;-57
2022/03/04 02:28:06;;;;;;;;;;;;;;;-0.38;83.44;99584.44;5054194;28;1948;-57
2022/03/04 02:30:33;;;;;;;;;;;;;;;-0.35;83.67;99582.97;5054214;28;807;-57
2022/03/04 02:33:00;;;;;;;;;;;;;;;-0.29;83.63;99585.13;5054153;28;919;-57
2022/03/04 02:35:27;;;;;;;;;;;;;;;-0.26;83.68;99584.44;5054148;28;807;-57
2022/03/04 02:37:54;;;;;;;;;;;;;;;-0.21;83.87;99594.34;5054142;28;882;-57
2022/03/04 02:40:20;;;;;;;;;;;;;;;-0.24;84.24;99587.63;5053981;28;863;-57
2022/03/04 02:42:46;;;;;;;;;;;;;;;-0.17;84.58;99581.66;5053954;28;1641;-57
2022/03/04 02:45:13;;;;;;;;;;;;;;;-0.10;84.38;99581.13;5052939;28;1666;-57
2022/03/04 02:47:39;;;;;;;;;;;;;;;0.02;84.10;99585.78;5052839;28;1963;-57
2022/03/04 02:50:06;;;;;;;;;;;;;;;0.07;83.96;99588.28;5054592;28;776;-57
2022/03/04 02:52:32;;;;;;;;;;;;;;;-0.03;83.49;99595.72;5053898;28;1260;-57
2022/03/04 02:54:58;;;;;;;;;;;;;;;-0.24;83.51;99592.28;5053747;28;803;-57
2022/03/04 02:57:24;;;;;;;;;;;;;;;-0.45;83.95;99584.16;5053705;28;886;-58
2022/03/04 02:59:51;;;;;;;;;;;;;;;-0.50;83.59;99590.59;5053912;28;870;-59
2022/03/04 03:02:17;;;;;;;;;;;;;;;-0.52;83.51;99582.00;5053957;28;863;-58
2022/03/04 03:04:43;;;;;;;;;;;;;;;-0.51;83.84;99583.59;5053575;28;815;-57
2022/03/04 03:07:10;;;;;;;;;;;;;;;-0.47;83.67;99581.81;5053586;28;1863;-57
2022/03/04 03:09:37;;;;;;;;;;;;;;;-0.46;83.73;99590.72;5053432;28;874;-59
2022/03/04 03:12:03;;;;;;;;;;;;;;;-0.45;83.70;99581.44;5053393;28;870;-59
2022/03/04 03:14:30;;;;;;;;;;;;;;;-0.43;83.74;99582.72;5053395;28;818;-59
2022/03/04 03:16:56;;;;;;;;;;;;;;;-0.39;83.93;99582.81;5053366;28;1027;-59
2022/03/04 03:19:23;;;;;;;;;;;;;;;-0.34;83.57;99579.91;5053393;28;823;-59
2022/03/04 03:21:49;;;;;;;;;;;;;;;-0.29;83.67;99581.63;5052409;28;906;-59
2022/03/04 03:24:16;;;;;;;;;;;;;;;-0.26;83.47;99572.81;5052993;28;815;-59
2022/03/04 03:26:42;;;;;;;;;;;;;;;-0.22;83.44;99574.50;5053112;28;1969;-59
2022/03/04 03:29:09;;;;;;;;;;;;;;;-0.19;83.40;99573.06;5053213;28;815;-59
2022/03/04 03:31:36;;;;;;;;;;;;;;;-0.19;83.04;99575.78;5052934;28;941;-56
2022/03/04 03:34:03;;;;;;;;;;;;;;;-0.15;83.50;99570.44;5053074;28;847;-59
2022/03/04 03:36:29;;;;;;;;;;;;;;;-0.04;83.16;99566.19;5052989;28;858;-59
2022/03/04 03:38:55;;;;;;;;;;;;;;;0.01;82.79;99565.97;5052947;28;835;-59
2022/03/04 03:41:21;;;;;;;;;;;;;;;0.03;82.67;99560.19;5052910;28;807;-59
2022/03/04 03:43:48;;;;;;;;;;;;;;;0.02;82.81;99564.81;5052761;28;1346;-59
2022/03/04 03:46:14;;;;;;;;;;;;;;;-0.05;83.04;99561.88;5052631;28;914;-59
2022/03/04 03:48:41;;;;;;;;;;;;;;;-0.10;83.31;99552.03;5052743;28;1975;-59
2022/03/04 03:51:08;;;;;;;;;;;;;;;-0.13;83.32;99541.81;5052653;28;861;-59
2022/03/04 03:53:35;;;;;;;;;;;;;;;-0.16;83.29;99547.94;5052958;28;823;-59
2022/03/04 03:56:01;;;;;;;;;;;;;;;-0.27;83.43;99553.00;5052920;28;815;-59
2022/03/04 03:58:27;;;;;;;;;;;;;;;-0.30;83.69;99553.69;5052586;28;938;-59
2022/03/04 04:00:55;;;;;;;;;;;;;;;-0.22;83.53;99541.13;5052550;28;815;-59
2022/03/04 04:03:21;;;;;;;;;;;;;;;-0.17;83.36;99557.22;5052648;28;843;-58
2022/03/04 04:05:48;;;;;;;;;;;;;;;-0.22;83.60;99560.13;5052642;28;808;-59
2022/03/04 04:08:14;;;;;;;;;;;;;;;-0.28;83.37;99558.75;5052359;28;1918;-58
2022/03/04 04:10:41;;;;;;;;;;;;;;;-0.36;83.58;99563.16;5052255;28;819;-58
2022/03/04 04:13:07;;;;;;;;;;;;;;;-0.40;83.82;99570.41;5052323;28;894;-58
2022/03/04 04:15:34;;;;;;;;;;;;;;;-0.47;83.64;99573.66;5052163;28;851;-58
2022/03/04 04:18:00;;;;;;;;;;;;;;;-0.48;83.87;99579.41;5052520;28;986;-58
2022/03/04 04:20:27;;;;;;;;;;;;;;;-0.56;84.29;99574.84;5052210;28;852;-58
2022/03/04 04:22:53;;;;;;;;;;;;;;;-0.68;84.37;99578.31;5052130;28;933;-58
2022/03/04 04:25:20;;;;;;;;;;;;;;;-0.77;84.70;99572.94;5052142;28;853;-59
2022/03/04 04:27:46;;;;;;;;;;;;;;;-0.96;84.81;99578.03;5050795;28;1889;-58
2022/03/04 04:30:13;;;;;;;;;;;;;;;-1.20;84.88;99574.06;5052307;28;874;-59
2022/03/04 04:32:39;;;;;;;;;;;;;;;-1.42;85.44;99572.44;5052439;28;799;-59
2022/03/04 04:35:06;;;;;;;;;;;;;;;-1.61;85.89;99582.91;5052293;28;803;-59
2022/03/04 04:37:32;;;;;;;;;;;;;;;-1.79;86.39;99588.41;5052239;28;906;-59
2022/03/04 04:39:59;;;;;;;;;;;;;;;-1.87;86.51;99591.94;5052080;28;855;-58
2022/03/04 04:42:25;;;;;;;;;;;;;;;-1.96;86.51;99591.97;5051455;28;1525;-58
2022/03/04 04:44:51;;;;;;;;;;;;;;;-2.00;87.40;99582.91;5051699;28;913;-59
2022/03/04 04:47:18;;;;;;;;;;;;;;;-1.98;87.65;99585.28;5051638;28;1977;-59
2022/03/04 04:49:45;;;;;;;;;;;;;;;-1.88;88.62;99579.50;5050413;28;1170;-59
2022/03/04 04:52:11;;;;;;;;;;;;;;;-1.80;88.43;99580.59;5051730;28;822;-59
2022/03/04 04:54:38;;;;;;;;;;;;;;;-1.62;88.71;99582.13;5051629;28;780;-59
2022/03/04 04:57:04;;;;;;;;;;;;;;;-1.39;88.14;99582.63;5051530;28;862;-58
2022/03/04 04:59:31;;;;;;;;;;;;;;;-1.09;87.85;99588.03;5051541;28;827;-59
2022/03/04 05:01:58;;;;;;;;;;;;;;;-0.89;87.42;99589.97;5051483;28;928;-59
2022/03/04 05:04:24;;;;;;;;;;;;;;;-0.83;87.07;99593.28;5050213;28;1261;-59
2022/03/04 05:06:51;;;;;;;;;;;;;;;-0.77;86.89;99591.16;5051404;28;2235;-58
2022/03/04 05:09:17;;;;;;;;;;;;;;;-0.68;86.65;99587.25;5051443;28;807;-59
2022/03/04 05:11:43;;;;;;;;;;;;;;;-0.56;86.76;99594.63;5051662;28;878;-59
2022/03/04 05:14:10;;;;;;;;;;;;;;;-0.38;86.58;99600.72;5051348;28;819;-59
2022/03/04 05:16:36;;;;;;;;;;;;;;;-0.21;86.17;99597.84;5051420;28;996;-58
2022/03/04 05:19:03;;;;;;;;;;;;;;;0.00;86.02;99605.16;5051547;28;807;-59
2022/03/04 05:21:29;;;;;;;;;;;;;;;0.13;85.36;99603.25;5051317;28;819;-58
2022/03/04 05:23:59;;;;;;;;;;;;;;;0.24;84.97;99607.13;5051499;28;894;-58
2022/03/04 05:26:28;;;;;;;;;;;;;;;0.34;84.77;99609.41;5051304;28;886;-59
2022/03/04 05:28:55;;;;;;;;;;;;;;;0.41;84.40;99622.44;5051105;28;1890;-59
2022/03/04 05:31:21;;;;;;;;;;;;;;;0.45;84.01;99607.03;5051261;28;823;-58
2022/03/04 05:33:48;;;;;;;;;;;;;;;0.51;84.24;99613.81;5051064;28;894;-58
2022/03/04 05:36:14;;;;;;;;;;;;;;;0.53;84.08;99610.75;5051206;28;823;-58
2022/03/04 05:38:41;;;;;;;;;;;;;;;0.52;84.39;99604.53;5051158;28;855;-59
2022/03/04 05:41:07;;;;;;;;;;;;;;;0.47;84.22;99612.91;5051185;28;827;-59
2022/03/04 05:43:34;;;;;;;;;;;;;;;0.49;83.97;99615.28;5050795;28;1263;-58
2022/03/04 05:46:00;;;;;;;;;;;;;;;0.44;83.58;99619.00;5052457;28;859;-58
2022/03/04 05:48:27;;;;;;;;;;;;;;;0.45;83.68;99619.81;5055107;28;1910;-59
2022/03/04 05:50:53;;;;;;;;;;;;;;;0.53;83.53;99621.63;5053782;28;1191;-58
2022/03/04 05:53:19;;;;;;;;;;;;;;;0.54;83.89;99625.94;5054855;28;866;-59
2022/03/04 05:55:46;;;;;;;;;;;;;;;0.54;83.28;99629.44;5054976;28;819;-58
2022/03/04 05:58:13;;;;;;;;;;;;;;;0.53;83.10;99630.56;5054754;28;918;-58
2022/03/04 06:00:39;;;;;;;;;;;;;;;0.55;83.57;99625.59;5054806;28;803;-58
2022/03/04 06:03:07;;;;;;;;;;;;;;;0.59;82.97;99626.50;5054710;28;845;-58
2022/03/04 06:05:33;;;;;;;;;;;;;;;0.67;82.68;99637.63;5054759;28;819;-58
2022/03/04 06:08:00;;;;;;;;;;;;;;;0.77;82.87;99632.53;5054636;28;1882;-58
2022/03/04 06:10:28;;;;;;;;;;;;;;;0.89;83.25;99630.91;5054668;28;887;-59
2022/03/04 06:12:54;;;;;;;;;;;;;;;0.94;82.81;99630.69;5054433;28;883;-58
2022/03/04 06:15:20;;;;;;;;;;;;;;;1.07;83.12;99634.19;5054411;28;929;-58
2022/03/04 06:17:47;;;;;;;;;;;;;;;1.30;82.84;99631.75;5054697;28;898;-59
2022/03/04 06:20:14;;;;;;;;;;;;;;;1.52;81.95;99631.25;5054481;28;807;-58
2022/03/04 06:22:41;;;;;;;;;;;;;;;1.71;82.35;99622.44;5054357;28;882;-59
2022/03/04 06:25:07;;;;;;;;;;;;;;;1.89;81.65;99612.00;5054313;28;948;-59
2022/03/04 06:27:33;;;;;;;;;;;;;;;2.14;81.42;99620.84;5054193;28;1877;-59
2022/03/04 06:30:00;;;;;;;;;;;;;;;2.27;80.32;99615.34;5054619;28;807;-58
2022/03/04 06:32:26;;;;;;;;;;;;;;;2.39;79.94;99629.69;5054224;28;878;-59
2022/03/04 06:34:52;;;;;;;;;;;;;;;2.45;79.42;99625.56;5054174;28;815;-58
2022/03/04 06:37:19;;;;;;;;;;;;;;;2.41;78.72;99635.56;5054156;28;863;-58
2022/03/04 06:39:46;;;;;;;;;;;;;;;2.18;77.83;99643.56;5054264;28;802;-58
2022/03/04 06:42:11;;;;;;;;;;;;;;;1.98;79.22;99644.56;5053843;28;1255;-58
2022/03/04 06:44:38;;;;;;;;;;;;;;;2.03;79.04;99645.13;5054055;28;909;-58
2022/03/04 06:47:04;;;;;;;;;;;;;;;2.15;79.21;99646.97;5054087;28;1914;-58
2022/03/04 06:49:31;;;;;;;;;;;;;;;2.14;78.72;99653.56;5054151;28;819;-58
2022/03/04 06:51:58;;;;;;;;;;;;;;;2.13;78.27;99662.88;5054339;28;740;-58
2022/03/04 06:54:24;;;;;;;;;;;;;;;2.15;78.19;99663.31;5053923;28;819;-58
2022/03/04 06:56:51;;;;;;;;;;;;;;;2.17;76.90;99666.50;5054483;28;799;-58
2022/03/04 06:59:17;;;;;;;;;;;;;;;2.21;76.80;99670.13;5054285;28;756;-58
2022/03/04 07:01:44;;;;;;;;;;;;;;;2.37;76.34;99664.69;5053695;28;830;-58
2022/03/04 07:04:11;;;;;;;;;;;;;;;2.74;76.43;99667.16;5069030;28;847;-58
2022/03/04 07:06:37;;;;;;;;;;;;;;;3.09;75.62;99666.41;5053480;28;1935;-58
2022/03/04 07:09:04;;;;;;;;;;;;;;;3.22;75.27;99656.97;5053542;28;863;-58
2022/03/04 07:11:30;;;;;;;;;;;;;;;3.50;75.20;99666.13;5053778;28;851;-58
2022/03/04 07:13:57;;;;;;;;;;;;;;;3.93;74.33;99664.31;5053292;28;846;-58
2022/03/04 07:16:23;;;;;;;;;;;;;;;4.37;72.89;99661.97;5053530;28;979;-57
2022/03/04 07:18:49;;;;;;;;;;;;;;;4.54;71.47;99659.91;5053363;28;808;-58
2022/03/04 07:21:16;;;;;;;;;;;;;;;4.73;70.50;99661.81;5053277;28;871;-58
2022/03/04 07:23:43;;;;;;;;;;;;;;;4.89;68.98;99654.25;5053196;28;942;-58
2022/03/04 07:26:10;;;;;;;;;;;;;;;5.36;68.40;99652.97;5053147;28;908;-58
2022/03/04 07:28:36;;;;;;;;;;;;;;;5.48;67.67;99652.75;5053039;28;1889;-57
2022/03/04 07:31:05;;;;;;;;;;;;;;;5.38;67.15;99645.16;5053015;28;1109;-59
2022/03/04 07:33:33;;;;;;;;;;;;;;;5.47;66.88;99642.16;5053040;28;1228;-59
2022/03/04 07:36:01;;;;;;;;;;;;;;;5.46;65.66;99649.59;5052985;28;823;-59
2022/03/04 07:38:28;;;;;;;;;;;;;;;5.25;65.29;99646.56;5052930;28;930;-59
2022/03/04 07:40:58;;;;;;;;;;;;;;;5.28;65.53;99640.31;5052821;28;917;-59
2022/03/04 07:43:25;;;;;;;;;;;;;;;5.34;65.24;99647.06;5052210;28;1312;-59
2022/03/04 07:45:52;;;;;;;;;;;;;;;5.66;65.25;99644.75;5052129;28;847;-57
2022/03/04 07:48:18;;;;;;;;;;;;;;;6.01;63.84;99646.34;5051000;28;1972;-59
2022/03/04 07:50:45;;;;;;;;;;;;;;;6.09;62.12;99647.22;5051970;28;803;-59
2022/03/04 07:53:12;;;;;;;;;;;;;;;6.08;62.47;99640.13;5052363;28;879;-57
2022/03/04 07:55:38;;;;;;;;;;;;;;;6.07;62.87;99636.59;5052108;28;831;-58
2022/03/04 07:58:04;;;;;;;;;;;;;;;5.91;62.50;99647.78;5051644;28;851;-58
2022/03/04 08:00:31;;;;;;;;;;;;;;;5.90;63.02;99646.19;5051594;28;1002;-58
2022/03/04 08:02:57;;;;;;;;;;;;;;;6.01;63.45;99648.28;5051508;28;966;-58
2022/03/04 08:05:24;;;;;;;;;;;;;;;6.36;63.45;99645.16;5067030;28;843;-58
2022/03/04 08:07:50;;;;;;;;;;;;;;;6.78;62.30;99637.66;5051111;28;1959;-57
2022/03/04 08:10:17;;;;;;;;;;;;;;;7.11;60.90;99633.97;5051038;28;846;-58
2022/03/04 08:12:43;;;;;;;;;;;;;;;7.38;60.87;99636.47;5051343;28;942;-58
2022/03/04 08:15:12;;;;;;;;;;;;;;;7.49;60.77;99640.84;5051367;28;958;-57
2022/03/04 08:17:39;;;;;;;;;;;;;;;7.66;59.70;99633.88;5051648;28;1228;-58
2022/03/04 08:20:06;;;;;;;;;;;;;;;7.75;59.26;99641.75;5051324;28;835;-58
2022/03/04 08:22:33;;;;;;;;;;;;;;;7.89;59.02;99630.00;5051310;28;872;-58
2022/03/04 08:25:00;;;;;;;;;;;;;;;8.25;57.67;99635.59;5051114;28;857;-58
2022/03/04 08:27:26;;;;;;;;;;;;;;;8.72;57.27;99639.19;5051115;28;1878;-57
2022/03/04 08:29:53;;;;;;;;;;;;;;;8.76;55.32;99628.97;5066591;28;949;-57
2022/03/04 08:32:23;;;;;;;;;;;;;;;8.41;55.61;99630.53;5051268;28;810;-58
2022/03/04 08:34:50;;;;;;;;;;;;;;;8.06;55.21;99634.75;5051139;28;898;-58
2022/03/04 08:37:16;;;;;;;;;;;;;;;8.04;55.29;99625.31;5051209;28;886;-58
2022/03/04 08:39:43;;;;;;;;;;;;;;;8.19;54.88;99637.94;5051047;28;922;-58
2022/03/04 08:42:10;;;;;;;;;;;;;;;8.27;55.62;99633.25;4961333;28;2565913;-58
2022/03/04 08:44:36;;;;;;;;;;;;;;;8.28;54.95;99634.81;5051771;28;893;-58
2022/03/04 08:47:03;;;;;;;;;;;;;;;8.29;54.00;99631.66;5051663;28;1981;-58
2022/03/04 08:49:29;;;;;;;;;;;;;;;8.64;53.00;99635.69;5051638;28;1167;-58
2022/03/04 08:51:56;;;;;;;;;;;;;;;9.06;51.87;99630.53;5051627;28;902;-58
2022/03/04 08:54:23;;;;;;;;;;;;;;;8.93;51.31;99630.16;5051633;28;945;-58
2022/03/04 08:56:50;;;;;;;;;;;;;;;9.07;51.11;99634.84;5051560;28;948;-58
2022/03/04 08:59:17;;;;;;;;;;;;;;;9.69;49.80;99631.53;5051580;28;897;-58
2022/03/04 09:01:44;;;;;;;;;;;;;;;9.51;50.02;99636.31;5051487;28;843;-58
2022/03/04 09:04:14;;;;;;;;;;;;;;;9.78;48.43;99642.91;5051544;28;787;-58
2022/03/04 09:06:40;;;;;;;;;;;;;;;10.36;47.64;99634.34;5051676;28;1886;-58
2022/03/04 09:09:06;;;;;;;;;;;;;;;11.09;46.48;99630.59;5051352;28;843;-58
2022/03/04 09:11:33;;;;;;;;;;;;;;;11.65;46.39;99622.09;5051341;28;831;-58
2022/03/04 09:14:01;;;;;;;;;;;;;;;11.53;44.95;99619.84;5051370;28;843;-58
2022/03/04 09:16:29;;;;;;;;;;;;;;;11.40;45.64;99617.63;5051342;28;1053;-59
2022/03/04 09:18:56;;;;;;;;;;;;;;;10.85;46.58;99624.09;5051287;28;942;-59
2022/03/04 09:21:22;;;;;;;;;;;;;;;11.27;45.05;99616.59;5055160;28;906;-59
2022/03/04 09:23:48;;;;;;;;;;;;;;;11.75;44.79;99617.59;5055454;28;881;-59
2022/03/04 09:26:15;;;;;;;;;;;;;;;12.38;44.42;99622.72;5055457;28;842;-59
2022/03/04 09:28:41;;;;;;;;;;;;;;;12.64;42.77;99621.09;5055212;28;1890;-59
2022/03/04 09:31:08;;;;;;;;;;;;;;;12.22;44.36;99618.56;5055421;28;827;-58
2022/03/04 09:33:35;;;;;;;;;;;;;;;11.38;44.63;99616.47;5055244;28;913;-58
2022/03/04 09:36:02;;;;;;;;;;;;;;;10.53;46.11;99614.09;5055332;28;891;-58
2022/03/04 09:38:28;;;;;;;;;;;;;;;10.62;47.03;99608.91;5055283;28;823;-58
2022/03/04 09:40:55;;;;;;;;;;;;;;;10.82;45.98;99611.88;5055129;28;871;-58
2022/03/04 09:43:22;;;;;;;;;;;;;;;10.60;47.07;99611.28;5054963;28;1261;-58
2022/03/04 09:45:50;;;;;;;;;;;;;;;10.48;46.72;99619.28;5055329;28;856;-58
2022/03/04 09:48:17;;;;;;;;;;;;;;;10.35;47.42;99605.94;5055075;28;1910;-58
2022/03/04 09:50:44;;;;;;;;;;;;;;;10.42;48.19;99607.88;5054866;28;902;-58
2022/03/04 09:53:11;;;;;;;;;;;;;;;10.29;47.30;99606.75;5055000;28;534;-58
2022/03/04 09:55:39;;;;;;;;;;;;;;;10.01;48.16;99608.50;5054807;28;982;-58
2022/03/04 09:58:11;;;;;;;;;;;;;;;9.72;48.73;99613.38;5054784;28;942;-58
2022/03/04 10:00:38;;;;;;;;;;;;;;;9.75;49.19;99596.00;5055073;28;886;-58
2022/03/04 10:03:06;;;;;;;;;;;;;;;10.04;48.64;99593.09;5054997;28;886;-58
2022/03/04 10:05:32;;;;;;;;;;;;;;;10.31;48.74;99585.84;5054654;28;888;-58
2022/03/04 10:07:59;;;;;;;;;;;;;;;10.16;48.57;99595.41;5054719;28;1878;-58
2022/03/04 10:10:25;;;;;;;;;;;;;;;10.06;49.16;99593.47;5054826;28;819;-58
2022/03/04 10:12:55;;;;;;;;;;;;;;;10.47;48.43;99590.06;5055092;28;827;-58
2022/03/04 10:15:22;;;;;;;;;;;;;;;10.41;48.47;99586.94;5054518;28;855;-58
2022/03/04 10:18:18;;;;;;;;;;;;;;;10.97;48.23;99570.28;5054876;28;997;-58
2022/03/04 10:20:44;;;;;;;;;;;;;;;10.71;47.72;99580.78;5054206;28;1650;-58
2022/03/04 10:23:12;;;;;;;;;;;;;;;11.44;46.14;99579.63;5069872;28;968;-59
2022/03/04 10:25:41;;;;;;;;;;;;;;;12.19;44.93;99577.84;5054292;28;902;-59
2022/03/04 10:28:09;;;;;;;;;;;;;;;12.94;43.65;99569.50;5054268;28;1886;-59
2022/03/04 10:30:36;;;;;;;;;;;;;;;13.52;42.20;99569.97;5054329;28;838;-59
2022/03/04 10:33:10;;;;;;;;;;;;;;;13.22;40.90;99562.63;5053602;28;787;-59
2022/03/04 10:35:37;;;;;;;;;;;;;;;13.17;42.07;99561.13;5054573;28;816;-59
2022/03/04 10:38:04;;;;;;;;;;;;;;;12.87;41.09;99553.78;5054379;28;882;-59
2022/03/04 10:40:43;;;;;;;;;;;;;;;12.90;40.95;99557.69;5054320;28;815;-59
2022/03/04 10:43:11;;;;;;;;;;;;;;;12.96;40.07;99554.00;5053715;28;1248;-59
2022/03/04 10:45:40;;;;;;;;;;;;;;;13.03;40.12;99544.75;5054066;28;803;-59
2022/03/04 10:48:14;;;;;;;;;;;;;;;12.91;40.33;99550.91;5053837;28;1906;-59
2022/03/04 10:50:42;;;;;;;;;;;;;;;12.90;39.17;99535.50;5054080;28;875;-59
2022/03/04 10:53:08;;;;;;;;;;;;;;;13.38;40.09;99534.97;5053841;28;918;-60
2022/03/04 10:55:43;;;;;;;;;;;;;;;12.56;39.40;99539.25;5053862;28;894;-58
2022/03/04 10:58:19;;;;;;;;;;;;;;;11.97;40.33;99538.63;5053671;28;886;-59
2022/03/04 11:00:46;;;;;;;;;;;;;;;11.73;40.24;99529.41;5053718;28;823;-59
2022/03/04 11:03:17;;;;;;;;;;;;;;;10.91;40.27;99524.91;5053601;28;842;-59
2022/03/04 11:05:44;;;;;;;;;;;;;;;9.95;41.47;99533.59;5053617;28;926;-59
2022/03/04 11:08:11;;;;;;;;;;;;;;;9.44;45.09;99526.00;5053595;28;1886;-59
2022/03/04 11:10:37;;;;;;;;;;;;;;;9.13;46.14;99522.97;5053589;28;870;-59
2022/03/04 11:13:04;;;;;;;;;;;;;;;9.03;47.16;99515.53;5053688;28;847;-59
2022/03/04 11:15:32;;;;;;;;;;;;;;;8.91;46.85;99516.75;5053741;28;847;-59
2022/03/04 11:18:01;;;;;;;;;;;;;;;8.92;47.09;99521.09;5054048;28;1002;-59
2022/03/04 11:20:27;;;;;;;;;;;;;;;8.94;47.69;99515.94;5053471;28;819;-59
2022/03/04 11:22:54;;;;;;;;;;;;;;;8.98;47.92;99520.28;5053274;28;975;-59
2022/03/04 11:25:22;;;;;;;;;;;;;;;9.03;48.20;99508.03;5053191;28;847;-59
2022/03/04 11:27:51;;;;;;;;;;;;;;;8.97;47.87;99518.69;5053157;28;1885;-59
2022/03/04 11:30:31;;;;;;;;;;;;;;;8.95;48.17;99517.53;5053101;28;957;-59
2022/03/04 11:33:12;;;;;;;;;;;;;;;9.08;48.30;99510.38;5053090;28;913;-59
2022/03/04 11:35:41;;;;;;;;;;;;;;;9.18;49.00;99506.03;5053079;28;862;-59
2022/03/04 11:38:11;;;;;;;;;;;;;;;9.20;48.83;99501.69;5052852;28;827;-59
2022/03/04 11:40:48;;;;;;;;;;;;;;;9.23;49.09;99497.31;5053002;28;874;-59
2022/03/04 11:43:19;;;;;;;;;;;;;;;9.12;49.14;99500.13;5051708;28;1149;-59
2022/03/04 11:46:02;;;;;;;;;;;;;;;9.08;48.46;99499.34;5052905;28;926;-59
2022/03/04 11:48:29;;;;;;;;;;;;;;;9.06;48.87;99501.72;5052829;28;1970;-59
2022/03/04 11:50:57;;;;;;;;;;;;;;;9.19;48.59;99502.84;5052678;28;934;-59
2022/03/04 11:53:24;;;;;;;;;;;;;;;9.27;48.77;99497.31;5052699;28;932;-59
2022/03/04 11:56:11;;;;;;;;;;;;;;;9.46;48.45;99496.06;5052819;28;968;-59
2022/03/04 11:59:00;;;;;;;;;;;;;;;9.75;47.87;99497.44;5067775;28;957;-59
2022/03/04 12:01:27;;;;;;;;;;;;;;;9.81;47.10;99495.84;5052230;28;1726;-59
2022/03/04 12:04:07;;;;;;;;;;;;;;;9.98;46.56;99485.84;5052585;28;867;-59
2022/03/04 12:06:32;;;;;;;;;;;;;;;10.19;46.10;99484.09;5052406;28;905;-59
2022/03/04 12:09:19;;;;;;;;;;;;;;;10.01;44.39;99487.03;5052239;28;1940;-59
2022/03/04 12:12:18;;;;;;;;;;;;;;;10.16;44.52;99485.72;5051761;28;1640;-59
2022/03/04 12:14:51;;;;;;;;;;;;;;;11.04;44.58;99487.22;5051289;28;1345;-59
2022/03/04 12:17:17;;;;;;;;;;;;;;;11.70;41.91;99482.41;5052410;28;923;-59
2022/03/04 12:19:44;;;;;;;;;;;;;;;11.76;41.80;99483.53;5052210;28;873;-59
2022/03/04 12:22:14;;;;;;;;;;;;;;;11.70;42.10;99487.97;5052355;28;787;-59
2022/03/04 12:24:51;;;;;;;;;;;;;;;11.28;41.59;99476.25;5052114;28;958;-59
2022/03/04 12:27:36;;;;;;;;;;;;;;;11.21;41.63;99475.16;5052063;28;1957;-59
2022/03/04 12:30:16;;;;;;;;;;;;;;;11.15;41.36;99473.28;5052351;28;894;-59
2022/03/04 12:32:59;;;;;;;;;;;;;;;11.17;42.04;99463.34;5052068;28;828;-59
2022/03/04 12:35:26;;;;;;;;;;;;;;;10.77;42.22;99470.53;5052029;28;843;-59
2022/03/04 12:37:52;;;;;;;;;;;;;;;10.33;42.40;99463.91;5051794;28;827;-60
2022/03/04 12:40:20;;;;;;;;;;;;;;;9.90;42.92;99462.25;5051801;28;913;-59
2022/03/04 12:42:53;;;;;;;;;;;;;;;9.66;42.84;99463.97;5051664;28;1265;-59
2022/03/04 12:45:19;;;;;;;;;;;;;;;9.57;42.12;99469.94;5050527;28;1664;-59
2022/03/04 12:47:47;;;;;;;;;;;;;;;9.53;42.46;99469.19;5051685;28;2034;-59
2022/03/04 12:50:13;;;;;;;;;;;;;;;9.47;43.06;99473.56;5051655;28;918;-59
2022/03/04 12:52:40;;;;;;;;;;;;;;;9.46;43.27;99472.00;5051670;28;859;-59
2022/03/04 12:55:08;;;;;;;;;;;;;;;9.30;42.87;99472.50;5051351;28;898;-59
2022/03/04 12:57:39;;;;;;;;;;;;;;;9.07;43.19;99481.25;5051560;28;863;-59
2022/03/04 13:00:05;;;;;;;;;;;;;;;8.93;42.66;99478.53;5051660;28;831;-59
2022/03/04 13:02:36;;;;;;;;;;;;;;;8.85;42.95;99490.78;5051547;28;804;-59
2022/03/04 13:05:04;;;;;;;;;;;;;;;8.67;48.96;99497.13;5051877;28;990;-59
2022/03/04 13:07:31;;;;;;;;;;;;;;;8.18;53.94;99498.72;5051462;28;1910;-58
2022/03/04 13:09:58;;;;;;;;;;;;;;;7.87;55.63;99503.00;5051954;28;851;-59
2022/03/04 13:12:25;;;;;;;;;;;;;;;7.51;57.27;99498.25;5051611;28;835;-58